createdAt,value
2017-07-19T00:00:36.034Z,22.55
2017-07-19T00:01:36.739Z,22.53
2017-07-19T00:02:37.444Z,22.41
2017-07-19T00:03:38.399Z,22.39
2017-07-19T00:04:39.115Z,22.43
2017-07-19T00:05:39.815Z,22.38
2017-07-19T00:06:40.525Z,22.41
2017-07-19T00:07:41.226Z,22.38
2017-07-19T00:08:41.926Z,22.30
2017-07-19T00:09:42.626Z,22.33
2017-07-19T00:10:43.328Z,22.28
2017-07-19T00:11:44.030Z,22.29
2017-07-19T00:12:44.737Z,22.22
2017-07-19T00:13:45.691Z,22.23
2017-07-19T00:14:46.392Z,22.07
2017-07-19T00:15:47.096Z,22.11
2017-07-19T00:16:47.794Z,22.04
2017-07-19T00:17:48.512Z,22.13
2017-07-19T00:18:49.471Z,21.77
2017-07-19T00:19:50.173Z,21.67
2017-07-19T00:20:50.873Z,21.67
2017-07-19T00:21:51.583Z,21.67
2017-07-19T00:22:52.285Z,21.75
2017-07-19T00:23:53.237Z,21.80
2017-07-19T00:24:53.938Z,21.79
2017-07-19T00:25:54.649Z,21.95
2017-07-19T00:26:55.351Z,22.06
2017-07-19T00:27:56.053Z,21.96
2017-07-19T00:28:57.006Z,22.10
2017-07-19T00:29:57.713Z,22.17
2017-07-19T00:30:58.416Z,22.17
2017-07-19T00:31:59.122Z,22.11
2017-07-19T00:32:59.825Z,22.00
2017-07-19T00:34:00.779Z,21.93
2017-07-19T00:35:01.489Z,21.96
2017-07-19T00:36:02.190Z,22.00
2017-07-19T00:37:02.890Z,21.95
2017-07-19T00:38:03.590Z,22.06
2017-07-19T00:39:04.556Z,22.06
2017-07-19T00:40:05.260Z,21.98
2017-07-19T00:41:05.970Z,22.08
2017-07-19T00:42:06.670Z,22.04
2017-07-19T00:43:07.372Z,21.85
2017-07-19T00:44:08.327Z,21.83
2017-07-19T00:45:09.031Z,21.95
2017-07-19T00:46:09.737Z,21.95
2017-07-19T00:47:10.441Z,22.00
2017-07-19T00:48:11.144Z,21.99
2017-07-19T00:49:12.098Z,21.92
2017-07-19T00:50:12.800Z,21.77
2017-07-19T00:51:13.499Z,21.82
2017-07-19T00:52:14.206Z,21.72
2017-07-19T00:53:14.905Z,21.79
2017-07-19T00:54:15.605Z,21.80
2017-07-19T00:55:16.307Z,21.76
2017-07-19T00:56:17.020Z,21.76
2017-07-19T00:57:17.741Z,21.76
2017-07-19T00:58:18.451Z,21.73
2017-07-19T00:59:19.411Z,21.79
2017-07-19T01:00:20.113Z,21.66
2017-07-19T01:01:20.812Z,21.79
2017-07-19T01:02:21.520Z,21.80
2017-07-19T01:03:22.223Z,21.82
2017-07-19T01:04:23.183Z,21.67
2017-07-19T01:05:23.887Z,21.76
2017-07-19T01:06:24.586Z,21.70
2017-07-19T01:07:25.293Z,21.66
2017-07-19T01:08:26.000Z,21.66
2017-07-19T01:09:26.955Z,21.73
2017-07-19T01:10:27.655Z,21.66
2017-07-19T01:11:28.357Z,21.58
2017-07-19T01:12:29.067Z,21.62
2017-07-19T01:13:29.771Z,21.62
2017-07-19T01:14:30.725Z,21.67
2017-07-19T01:15:31.426Z,21.61
2017-07-19T01:16:32.122Z,21.52
2017-07-19T01:17:32.821Z,21.60
2017-07-19T01:18:33.521Z,21.52
2017-07-19T01:19:34.229Z,21.66
2017-07-19T01:20:34.930Z,21.70
2017-07-19T01:21:35.633Z,21.61
2017-07-19T01:22:36.336Z,21.58
2017-07-19T01:23:37.035Z,21.62
2017-07-19T01:24:37.995Z,21.57
2017-07-19T01:25:38.700Z,21.61
2017-07-19T01:26:39.404Z,21.61
2017-07-19T01:27:40.109Z,21.64
2017-07-19T01:28:40.823Z,21.70
2017-07-19T01:29:41.778Z,21.70
2017-07-19T01:30:42.479Z,21.70
2017-07-19T01:31:43.181Z,21.50
2017-07-19T01:32:43.883Z,21.57
2017-07-19T01:33:44.580Z,21.62
2017-07-19T01:34:45.534Z,21.72
2017-07-19T01:35:46.240Z,21.66
2017-07-19T01:36:46.943Z,21.58
2017-07-19T01:37:47.646Z,21.52
2017-07-19T01:38:48.349Z,21.67
2017-07-19T01:39:49.305Z,21.50
2017-07-19T01:40:50.008Z,21.50
2017-07-19T01:41:50.709Z,21.51
2017-07-19T01:42:51.414Z,21.50
2017-07-19T01:43:52.119Z,21.37
2017-07-19T01:44:53.070Z,21.45
2017-07-19T01:45:53.772Z,21.33
2017-07-19T01:46:54.479Z,21.40
2017-07-19T01:47:55.185Z,21.27
2017-07-19T01:48:55.896Z,21.29
2017-07-19T01:49:56.854Z,21.20
2017-07-19T01:50:57.557Z,21.14
2017-07-19T01:51:58.263Z,21.06
2017-07-19T01:52:58.964Z,20.99
2017-07-19T01:53:59.668Z,20.96
2017-07-19T01:55:00.621Z,20.90
2017-07-19T01:56:01.323Z,20.88
2017-07-19T01:57:02.021Z,20.87
2017-07-19T01:58:02.718Z,20.90
2017-07-19T01:59:03.421Z,20.85
2017-07-19T02:00:04.374Z,20.84
2017-07-19T02:01:05.076Z,20.85
2017-07-19T02:02:05.786Z,20.87
2017-07-19T02:03:06.490Z,20.74
2017-07-19T02:04:07.193Z,20.80
2017-07-19T02:05:08.148Z,20.72
2017-07-19T02:06:08.854Z,20.77
2017-07-19T02:07:09.561Z,20.75
2017-07-19T02:08:10.263Z,20.72
2017-07-19T02:09:10.964Z,20.80
2017-07-19T02:10:11.917Z,20.70
2017-07-19T02:11:12.620Z,20.70
2017-07-19T02:12:13.327Z,20.63
2017-07-19T02:13:14.028Z,20.59
2017-07-19T02:14:14.731Z,20.52
2017-07-19T02:15:15.698Z,20.50
2017-07-19T02:16:16.400Z,20.51
2017-07-19T02:17:17.104Z,20.40
2017-07-19T02:18:17.807Z,20.34
2017-07-19T02:19:18.507Z,20.39
2017-07-19T02:20:19.456Z,20.37
2017-07-19T02:21:20.156Z,20.37
2017-07-19T02:22:20.857Z,20.37
2017-07-19T02:23:21.561Z,20.47
2017-07-19T02:24:22.261Z,20.50
2017-07-19T02:25:22.959Z,20.59
2017-07-19T02:26:23.664Z,20.59
2017-07-19T02:27:24.364Z,20.62
2017-07-19T02:28:25.066Z,20.56
2017-07-19T02:29:25.767Z,20.59
2017-07-19T02:30:26.721Z,20.62
2017-07-19T02:31:27.426Z,20.65
2017-07-19T02:32:28.127Z,20.67
2017-07-19T02:33:28.827Z,20.59
2017-07-19T02:34:29.526Z,20.62
2017-07-19T02:35:30.477Z,20.62
2017-07-19T02:36:31.183Z,20.50
2017-07-19T02:37:31.898Z,20.47
2017-07-19T02:38:32.598Z,20.44
2017-07-19T02:39:33.303Z,20.31
2017-07-19T02:40:34.252Z,20.37
2017-07-19T02:41:34.969Z,20.32
2017-07-19T02:42:35.672Z,20.37
2017-07-19T02:43:36.373Z,20.37
2017-07-19T02:44:37.076Z,20.39
2017-07-19T02:45:37.780Z,20.32
2017-07-19T02:46:38.483Z,20.21
2017-07-19T02:47:39.191Z,20.22
2017-07-19T02:48:39.893Z,20.22
2017-07-19T02:49:40.595Z,20.26
2017-07-19T02:50:41.546Z,20.25
2017-07-19T02:51:42.250Z,20.34
2017-07-19T02:52:42.961Z,20.34
2017-07-19T02:53:43.664Z,20.37
2017-07-19T02:54:44.366Z,20.41
2017-07-19T02:55:45.323Z,20.47
2017-07-19T02:56:46.022Z,20.51
2017-07-19T02:57:46.729Z,20.43
2017-07-19T02:58:47.436Z,20.47
2017-07-19T02:59:48.138Z,20.40
2017-07-19T03:00:49.089Z,20.40
2017-07-19T03:01:49.793Z,20.40
2017-07-19T03:02:50.503Z,20.37
2017-07-19T03:03:51.205Z,20.34
2017-07-19T03:04:51.910Z,20.39
2017-07-19T03:05:52.870Z,20.37
2017-07-19T03:06:53.570Z,20.37
2017-07-19T03:07:54.284Z,20.34
2017-07-19T03:08:54.984Z,20.25
2017-07-19T03:09:55.691Z,20.34
2017-07-19T03:10:56.643Z,20.39
2017-07-19T03:11:57.350Z,20.40
2017-07-19T03:12:58.049Z,20.36
2017-07-19T03:13:58.757Z,20.32
2017-07-19T03:14:59.456Z,20.28
2017-07-19T03:16:00.410Z,20.29
2017-07-19T03:17:01.109Z,20.34
2017-07-19T03:18:01.812Z,20.24
2017-07-19T03:19:02.521Z,20.25
2017-07-19T03:20:03.227Z,20.24
2017-07-19T03:21:04.179Z,20.26
2017-07-19T03:22:04.886Z,20.19
2017-07-19T03:23:05.590Z,20.28
2017-07-19T03:24:06.299Z,20.24
2017-07-19T03:25:07.005Z,20.28
2017-07-19T03:26:07.962Z,20.22
2017-07-19T03:27:08.674Z,20.19
2017-07-19T03:28:09.376Z,20.28
2017-07-19T03:29:10.079Z,20.25
2017-07-19T03:30:10.784Z,20.22
2017-07-19T03:31:11.738Z,20.25
2017-07-19T03:32:12.443Z,20.24
2017-07-19T03:33:13.146Z,20.18
2017-07-19T03:34:13.871Z,20.09
2017-07-19T03:35:14.596Z,20.18
2017-07-19T03:36:15.553Z,20.11
2017-07-19T03:37:16.259Z,20.24
2017-07-19T03:38:16.974Z,20.24
2017-07-19T03:39:17.678Z,20.25
2017-07-19T03:40:18.393Z,20.18
2017-07-19T03:41:19.351Z,20.11
2017-07-19T03:42:20.054Z,20.04
2017-07-19T03:43:20.772Z,20.09
2017-07-19T03:44:21.493Z,20.16
2017-07-19T03:45:22.196Z,20.04
2017-07-19T03:46:23.153Z,20.11
2017-07-19T03:47:23.861Z,20.09
2017-07-19T03:48:24.565Z,20.04
2017-07-19T03:49:25.269Z,20.04
2017-07-19T03:50:25.969Z,20.13
2017-07-19T03:51:26.674Z,20.03
2017-07-19T03:52:27.382Z,20.02
2017-07-19T03:53:28.088Z,20.06
2017-07-19T03:54:28.803Z,20.11
2017-07-19T03:55:29.508Z,20.03
2017-07-19T03:56:30.210Z,20.03
2017-07-19T03:57:30.912Z,19.92
2017-07-19T03:58:31.615Z,19.99
2017-07-19T03:59:32.316Z,19.88
2017-07-19T04:00:33.020Z,19.96
2017-07-19T04:01:33.720Z,20.04
2017-07-19T04:02:34.430Z,20.06
2017-07-19T04:03:35.134Z,20.03
2017-07-19T04:04:35.835Z,20.04
2017-07-19T04:05:36.537Z,20.09
2017-07-19T04:06:37.240Z,20.09
2017-07-19T04:07:37.963Z,20.03
2017-07-19T04:08:38.672Z,20.22
2017-07-19T04:09:39.376Z,20.13
2017-07-19T04:10:40.077Z,20.14
2017-07-19T04:11:41.031Z,20.28
2017-07-19T04:12:41.735Z,20.26
2017-07-19T04:13:42.441Z,20.24
2017-07-19T04:14:43.148Z,20.26
2017-07-19T04:15:43.854Z,20.22
2017-07-19T04:16:44.812Z,20.22
2017-07-19T04:17:45.519Z,20.25
2017-07-19T04:18:46.222Z,20.24
2017-07-19T04:19:46.928Z,20.09
2017-07-19T04:20:47.637Z,20.14
2017-07-19T04:21:48.590Z,20.19
2017-07-19T04:22:49.294Z,20.11
2017-07-19T04:23:50.000Z,20.14
2017-07-19T04:24:50.702Z,20.18
2017-07-19T04:25:51.406Z,20.13
2017-07-19T04:26:52.356Z,20.18
2017-07-19T04:27:53.061Z,20.06
2017-07-19T04:28:53.765Z,20.04
2017-07-19T04:29:54.471Z,20.11
2017-07-19T04:30:55.186Z,20.16
2017-07-19T04:31:56.149Z,20.22
2017-07-19T04:32:56.853Z,20.06
2017-07-19T04:33:57.558Z,20.04
2017-07-19T04:34:58.264Z,20.16
2017-07-19T04:35:58.967Z,20.04
2017-07-19T04:36:59.924Z,20.21
2017-07-19T04:38:00.641Z,20.13
2017-07-19T04:39:01.343Z,20.06
2017-07-19T04:40:02.046Z,20.02
2017-07-19T04:41:02.752Z,20.04
2017-07-19T04:42:03.715Z,20.04
2017-07-19T04:43:04.419Z,20.07
2017-07-19T04:44:05.121Z,20.06
2017-07-19T04:45:05.831Z,20.00
2017-07-19T04:46:06.535Z,19.95
2017-07-19T04:47:07.490Z,19.94
2017-07-19T04:48:08.194Z,19.94
2017-07-19T04:49:08.896Z,19.92
2017-07-19T04:50:09.598Z,19.91
2017-07-19T04:51:10.300Z,19.88
2017-07-19T04:52:11.255Z,19.82
2017-07-19T04:53:11.958Z,19.89
2017-07-19T04:54:12.668Z,19.86
2017-07-19T04:55:13.373Z,19.85
2017-07-19T04:56:14.081Z,20.03
2017-07-19T04:57:15.035Z,19.86
2017-07-19T04:58:15.745Z,19.88
2017-07-19T04:59:16.452Z,19.95
2017-07-19T05:00:17.160Z,19.92
2017-07-19T05:01:17.861Z,19.88
2017-07-19T05:02:18.813Z,19.86
2017-07-19T05:03:19.518Z,19.86
2017-07-19T05:04:20.220Z,19.91
2017-07-19T05:05:20.928Z,20.02
2017-07-19T05:06:21.641Z,20.00
2017-07-19T05:07:22.603Z,20.02
2017-07-19T05:08:23.312Z,20.09
2017-07-19T05:09:24.018Z,20.21
2017-07-19T05:10:24.724Z,20.24
2017-07-19T05:11:25.435Z,20.21
2017-07-19T05:12:26.391Z,20.21
2017-07-19T05:13:27.092Z,20.26
2017-07-19T05:14:27.794Z,20.22
2017-07-19T05:15:28.499Z,20.32
2017-07-19T05:16:29.203Z,20.25
2017-07-19T05:17:30.160Z,20.25
2017-07-19T05:18:30.861Z,20.24
2017-07-19T05:19:31.564Z,20.25
2017-07-19T05:20:32.267Z,20.22
2017-07-19T05:21:32.969Z,20.19
2017-07-19T05:22:33.923Z,20.26
2017-07-19T05:23:34.630Z,20.25
2017-07-19T05:24:35.335Z,20.32
2017-07-19T05:25:36.037Z,20.26
2017-07-19T05:26:36.743Z,20.11
2017-07-19T05:27:37.448Z,20.25
2017-07-19T05:28:38.150Z,20.31
2017-07-19T05:29:38.866Z,20.32
2017-07-19T05:30:39.566Z,20.28
2017-07-19T05:31:40.270Z,20.32
2017-07-19T05:32:41.237Z,20.29
2017-07-19T05:33:41.944Z,20.40
2017-07-19T05:34:42.652Z,20.32
2017-07-19T05:35:43.356Z,20.34
2017-07-19T05:36:44.070Z,20.37
2017-07-19T05:37:45.026Z,20.24
2017-07-19T05:38:45.729Z,20.21
2017-07-19T05:39:46.435Z,20.28
2017-07-19T05:40:47.144Z,20.25
2017-07-19T05:41:47.853Z,20.34
2017-07-19T05:42:48.807Z,20.26
2017-07-19T05:43:49.511Z,20.34
2017-07-19T05:44:50.214Z,20.37
2017-07-19T05:45:50.917Z,20.39
2017-07-19T05:46:51.633Z,20.43
2017-07-19T05:47:52.590Z,20.44
2017-07-19T05:48:53.303Z,20.48
2017-07-19T05:49:54.010Z,20.55
2017-07-19T05:50:54.713Z,20.50
2017-07-19T05:51:55.422Z,20.63
2017-07-19T05:52:56.376Z,20.52
2017-07-19T05:53:57.077Z,20.52
2017-07-19T05:54:57.779Z,20.51
2017-07-19T05:55:58.487Z,20.51
2017-07-19T05:56:59.191Z,20.59
2017-07-19T05:58:00.144Z,20.60
2017-07-19T05:59:00.850Z,20.63
2017-07-19T06:00:01.553Z,20.65
2017-07-19T06:01:02.269Z,20.56
2017-07-19T06:02:02.978Z,20.51
2017-07-19T06:03:03.934Z,20.59
2017-07-19T06:04:04.645Z,20.66
2017-07-19T06:05:05.350Z,20.59
2017-07-19T06:06:06.052Z,20.59
2017-07-19T06:07:06.765Z,20.59
2017-07-19T06:08:07.724Z,20.60
2017-07-19T06:09:08.439Z,20.60
2017-07-19T06:10:09.146Z,20.51
2017-07-19T06:11:09.849Z,20.52
2017-07-19T06:12:10.562Z,20.58
2017-07-19T06:13:11.266Z,20.58
2017-07-19T06:14:11.972Z,20.59
2017-07-19T06:15:12.682Z,20.59
2017-07-19T06:16:13.403Z,20.62
2017-07-19T06:17:14.109Z,20.63
2017-07-19T06:18:15.066Z,20.63
2017-07-19T06:19:15.787Z,20.69
2017-07-19T06:20:16.495Z,20.72
2017-07-19T06:21:17.203Z,20.72
2017-07-19T06:22:17.917Z,20.74
2017-07-19T06:23:18.870Z,20.72
2017-07-19T06:24:19.574Z,20.80
2017-07-19T06:25:20.290Z,20.84
2017-07-19T06:26:20.997Z,20.90
2017-07-19T06:27:21.703Z,20.88
2017-07-19T06:28:22.672Z,20.85
2017-07-19T06:29:23.373Z,20.92
2017-07-19T06:30:24.074Z,20.85
2017-07-19T06:31:24.778Z,20.96
2017-07-19T06:32:25.484Z,20.90
2017-07-19T06:33:26.441Z,20.97
2017-07-19T06:34:27.143Z,20.99
2017-07-19T06:35:27.849Z,20.88
2017-07-19T06:36:28.564Z,20.95
2017-07-19T06:37:29.272Z,20.99
2017-07-19T06:38:30.228Z,20.92
2017-07-19T06:39:30.943Z,20.92
2017-07-19T06:40:31.647Z,20.97
2017-07-19T06:41:32.349Z,20.99
2017-07-19T06:42:33.058Z,21.02
2017-07-19T06:43:34.011Z,21.18
2017-07-19T06:44:34.719Z,21.14
2017-07-19T06:45:35.429Z,21.12
2017-07-19T06:46:36.132Z,21.18
2017-07-19T06:47:36.841Z,21.24
2017-07-19T06:48:37.550Z,21.33
2017-07-19T06:49:38.256Z,21.37
2017-07-19T06:50:38.977Z,21.35
2017-07-19T06:51:39.697Z,21.30
2017-07-19T06:52:40.399Z,21.35
2017-07-19T06:53:41.102Z,21.48
2017-07-19T06:54:41.805Z,21.42
2017-07-19T06:55:42.510Z,21.54
2017-07-19T06:56:43.217Z,21.50
2017-07-19T06:57:43.917Z,21.51
2017-07-19T06:58:44.627Z,21.48
2017-07-19T06:59:45.338Z,21.52
2017-07-19T07:00:46.045Z,21.58
2017-07-19T07:01:46.752Z,21.58
2017-07-19T07:02:47.462Z,21.58
2017-07-19T07:03:48.169Z,21.70
2017-07-19T07:04:48.884Z,21.70
2017-07-19T07:05:49.590Z,21.70
2017-07-19T07:06:50.300Z,21.70
2017-07-19T07:07:51.012Z,21.73
2017-07-19T07:08:51.990Z,21.76
2017-07-19T07:09:52.710Z,21.75
2017-07-19T07:10:53.418Z,21.70
2017-07-19T07:11:54.119Z,21.75
2017-07-19T07:12:54.829Z,21.80
2017-07-19T07:13:55.793Z,21.73
2017-07-19T07:14:56.511Z,21.82
2017-07-19T07:15:57.217Z,21.93
2017-07-19T07:16:57.918Z,22.00
2017-07-19T07:17:58.621Z,21.95
2017-07-19T07:18:59.580Z,22.00
2017-07-19T07:20:00.290Z,22.04
2017-07-19T07:21:00.996Z,22.10
2017-07-19T07:22:01.700Z,22.07
2017-07-19T07:23:02.411Z,22.14
2017-07-19T07:24:03.116Z,22.11
2017-07-19T07:25:03.824Z,22.14
2017-07-19T07:26:04.531Z,22.13
2017-07-19T07:27:05.239Z,22.15
2017-07-19T07:28:05.949Z,22.26
2017-07-19T07:29:06.898Z,22.28
2017-07-19T07:30:07.604Z,22.25
2017-07-19T07:31:08.308Z,22.30
2017-07-19T07:32:09.013Z,22.35
2017-07-19T07:33:09.721Z,22.35
2017-07-19T07:34:10.677Z,22.38
2017-07-19T07:35:11.386Z,22.50
2017-07-19T07:36:12.103Z,22.47
2017-07-19T07:37:12.813Z,22.47
2017-07-19T07:38:13.521Z,22.51
2017-07-19T07:39:14.479Z,22.54
2017-07-19T07:40:15.184Z,22.57
2017-07-19T07:41:15.892Z,22.62
2017-07-19T07:42:16.600Z,22.66
2017-07-19T07:43:17.311Z,22.72
2017-07-19T07:44:18.017Z,22.75
2017-07-19T07:45:18.725Z,22.76
2017-07-19T07:46:19.433Z,22.76
2017-07-19T07:47:20.145Z,22.80
2017-07-19T07:48:20.862Z,22.66
2017-07-19T07:49:21.823Z,22.76
2017-07-19T07:50:22.544Z,22.75
2017-07-19T07:51:23.254Z,22.76
2017-07-19T07:52:23.966Z,22.85
2017-07-19T07:53:24.678Z,22.87
2017-07-19T07:54:25.638Z,22.85
2017-07-19T07:55:26.343Z,22.98
2017-07-19T07:56:27.054Z,22.96
2017-07-19T07:57:27.758Z,23.06
2017-07-19T07:58:28.475Z,23.12
2017-07-19T07:59:29.182Z,23.13
2017-07-19T08:00:29.903Z,23.17
2017-07-19T08:01:30.615Z,23.12
2017-07-19T08:02:31.324Z,23.23
2017-07-19T08:03:32.028Z,23.24
2017-07-19T08:04:32.738Z,23.36
2017-07-19T08:05:33.450Z,23.47
2017-07-19T08:06:34.164Z,23.51
2017-07-19T08:07:34.872Z,23.48
2017-07-19T08:08:35.577Z,23.55
2017-07-19T08:09:36.539Z,23.55
2017-07-19T08:10:37.251Z,23.65
2017-07-19T08:11:37.961Z,23.58
2017-07-19T08:12:38.673Z,23.58
2017-07-19T08:13:39.379Z,23.61
2017-07-19T08:14:40.345Z,23.66
2017-07-19T08:15:41.053Z,23.66
2017-07-19T08:16:41.762Z,23.74
2017-07-19T08:17:42.462Z,23.78
2017-07-19T08:18:43.173Z,23.71
2017-07-19T08:19:44.128Z,23.74
2017-07-19T08:20:44.837Z,23.74
2017-07-19T08:21:45.544Z,23.86
2017-07-19T08:22:46.249Z,23.96
2017-07-19T08:23:46.953Z,23.98
2017-07-19T08:24:47.909Z,23.91
2017-07-19T08:25:48.632Z,23.96
2017-07-19T08:26:49.338Z,24.02
2017-07-19T08:27:50.050Z,24.02
2017-07-19T08:28:50.761Z,24.14
2017-07-19T08:29:51.725Z,24.11
2017-07-19T08:30:52.436Z,24.03
2017-07-19T08:31:53.143Z,24.08
2017-07-19T08:32:53.861Z,24.18
2017-07-19T08:33:54.573Z,24.21
2017-07-19T08:34:55.532Z,24.26
2017-07-19T08:35:56.241Z,24.29
2017-07-19T08:36:56.949Z,24.28
2017-07-19T08:37:57.659Z,24.30
2017-07-19T08:38:58.372Z,24.24
2017-07-19T08:39:59.328Z,24.43
2017-07-19T08:41:00.051Z,24.39
2017-07-19T08:42:00.762Z,24.55
2017-07-19T08:43:01.493Z,24.51
2017-07-19T08:44:02.202Z,24.53
2017-07-19T08:45:03.160Z,24.54
2017-07-19T08:46:03.866Z,24.58
2017-07-19T08:47:04.577Z,24.54
2017-07-19T08:48:05.292Z,24.70
2017-07-19T08:49:05.998Z,24.63
2017-07-19T08:50:06.957Z,24.73
2017-07-19T08:51:07.664Z,24.60
2017-07-19T08:52:08.370Z,24.65
2017-07-19T08:53:09.077Z,24.76
2017-07-19T08:54:09.782Z,24.80
2017-07-19T08:55:10.741Z,24.84
2017-07-19T08:56:11.452Z,24.81
2017-07-19T08:57:12.160Z,24.96
2017-07-19T08:58:12.865Z,25.04
2017-07-19T08:59:13.567Z,24.89
2017-07-19T09:00:14.526Z,24.99
2017-07-19T09:01:15.233Z,25.08
2017-07-19T09:02:15.946Z,25.06
2017-07-19T09:03:16.654Z,25.17
2017-07-19T09:04:17.359Z,25.23
2017-07-19T09:05:18.328Z,25.21
2017-07-19T09:06:19.043Z,25.40
2017-07-19T09:07:19.751Z,25.36
2017-07-19T09:08:20.453Z,25.38
2017-07-19T09:09:21.159Z,25.41
2017-07-19T09:10:21.880Z,25.48
2017-07-19T09:11:22.596Z,25.51
2017-07-19T09:12:23.302Z,25.46
2017-07-19T09:13:24.015Z,25.55
2017-07-19T09:14:24.726Z,25.40
2017-07-19T09:15:25.690Z,25.48
2017-07-19T09:16:26.401Z,25.55
2017-07-19T09:17:27.105Z,25.47
2017-07-19T09:18:27.816Z,25.63
2017-07-19T09:19:28.525Z,25.63
2017-07-19T09:20:29.482Z,25.66
2017-07-19T09:21:30.190Z,25.70
2017-07-19T09:22:30.894Z,25.70
2017-07-19T09:23:31.610Z,25.83
2017-07-19T09:24:32.318Z,25.72
2017-07-19T09:25:33.286Z,25.83
2017-07-19T09:26:33.992Z,25.81
2017-07-19T09:27:34.708Z,25.84
2017-07-19T09:28:35.421Z,25.93
2017-07-19T09:29:36.127Z,25.91
2017-07-19T09:30:37.086Z,26.00
2017-07-19T09:31:37.791Z,26.09
2017-07-19T09:32:38.493Z,26.03
2017-07-19T09:33:39.209Z,26.05
2017-07-19T09:34:39.915Z,26.02
2017-07-19T09:35:40.870Z,26.18
2017-07-19T09:36:41.579Z,26.10
2017-07-19T09:37:42.289Z,26.19
2017-07-19T09:38:42.996Z,26.21
2017-07-19T09:39:43.702Z,26.28
2017-07-19T09:40:44.666Z,26.22
2017-07-19T09:41:45.377Z,26.25
2017-07-19T09:42:46.085Z,26.34
2017-07-19T09:43:46.800Z,26.34
2017-07-19T09:44:47.515Z,26.34
2017-07-19T09:45:48.493Z,26.48
2017-07-19T09:46:49.206Z,26.53
2017-07-19T09:47:49.918Z,26.56
2017-07-19T09:48:50.624Z,26.62
2017-07-19T09:49:51.334Z,26.75
2017-07-19T09:50:52.302Z,26.80
2017-07-19T09:51:53.013Z,26.83
2017-07-19T09:52:53.738Z,26.89
2017-07-19T09:53:54.449Z,26.85
2017-07-19T09:54:55.155Z,27.05
2017-07-19T09:55:56.115Z,27.17
2017-07-19T09:56:56.833Z,27.21
2017-07-19T09:57:57.538Z,27.27
2017-07-19T09:58:58.250Z,27.27
2017-07-19T09:59:58.967Z,27.27
2017-07-19T10:00:59.673Z,27.21
2017-07-19T10:02:00.387Z,27.29
2017-07-19T10:03:01.095Z,27.29
2017-07-19T10:04:01.820Z,27.14
2017-07-19T10:05:02.531Z,27.39
2017-07-19T10:06:03.491Z,27.36
2017-07-19T10:07:04.203Z,27.42
2017-07-19T10:08:04.962Z,27.44
2017-07-19T10:09:05.680Z,27.29
2017-07-19T10:10:06.393Z,27.22
2017-07-19T10:11:07.352Z,27.33
2017-07-19T10:12:08.065Z,27.47
2017-07-19T10:13:08.787Z,27.51
2017-07-19T10:14:09.501Z,27.58
2017-07-19T10:15:10.212Z,27.55
2017-07-19T10:16:11.172Z,27.60
2017-07-19T10:17:11.884Z,27.45
2017-07-19T10:18:12.589Z,27.45
2017-07-19T10:19:13.300Z,27.63
2017-07-19T10:20:14.012Z,27.63
2017-07-19T10:21:14.973Z,27.63
2017-07-19T10:22:15.683Z,27.70
2017-07-19T10:23:16.391Z,27.85
2017-07-19T10:24:17.107Z,27.86
2017-07-19T10:25:17.825Z,27.85
2017-07-19T10:26:18.787Z,27.89
2017-07-19T10:27:19.495Z,27.89
2017-07-19T10:28:20.205Z,28.01
2017-07-19T10:29:20.938Z,27.95
2017-07-19T10:30:21.653Z,28.04
2017-07-19T10:31:22.616Z,28.22
2017-07-19T10:32:23.333Z,28.30
2017-07-19T10:33:24.050Z,28.27
2017-07-19T10:34:24.762Z,28.26
2017-07-19T10:35:25.474Z,28.23
2017-07-19T10:36:26.437Z,28.35
2017-07-19T10:37:27.155Z,28.26
2017-07-19T10:38:27.867Z,28.35
2017-07-19T10:39:28.577Z,28.35
2017-07-19T10:40:29.289Z,28.37
2017-07-19T10:41:30.250Z,28.27
2017-07-19T10:42:30.962Z,28.29
2017-07-19T10:43:31.680Z,28.29
2017-07-19T10:44:32.393Z,28.33
2017-07-19T10:45:33.105Z,28.25
2017-07-19T10:46:34.065Z,28.35
2017-07-19T10:47:34.776Z,28.41
2017-07-19T10:48:35.490Z,28.54
2017-07-19T10:49:36.199Z,28.54
2017-07-19T10:50:36.916Z,28.57
2017-07-19T10:51:37.875Z,28.57
2017-07-19T10:52:38.583Z,28.67
2017-07-19T10:53:39.297Z,28.75
2017-07-19T10:54:40.011Z,28.84
2017-07-19T10:55:40.721Z,28.94
2017-07-19T10:56:41.685Z,29.04
2017-07-19T10:57:42.416Z,29.07
2017-07-19T10:58:43.156Z,29.05
2017-07-19T10:59:43.868Z,29.24
2017-07-19T11:00:44.581Z,29.19
2017-07-19T11:01:45.542Z,29.17
2017-07-19T11:02:46.249Z,29.13
2017-07-19T11:03:46.967Z,29.17
2017-07-19T11:04:47.678Z,29.10
2017-07-19T11:05:48.394Z,29.20
2017-07-19T11:06:49.363Z,29.32
2017-07-19T11:07:50.076Z,29.35
2017-07-19T11:08:50.793Z,29.45
2017-07-19T11:09:51.500Z,29.56
2017-07-19T11:10:52.209Z,29.79
2017-07-19T11:11:53.173Z,29.69
2017-07-19T11:12:53.882Z,29.88
2017-07-19T11:13:54.596Z,29.86
2017-07-19T11:14:55.317Z,29.94
2017-07-19T11:15:56.029Z,29.88
2017-07-19T11:16:56.993Z,29.91
2017-07-19T11:17:57.703Z,29.91
2017-07-19T11:18:58.411Z,29.81
2017-07-19T11:19:59.118Z,29.91
2017-07-19T11:20:59.826Z,29.81
2017-07-19T11:22:00.783Z,29.86
2017-07-19T11:23:01.500Z,29.76
2017-07-19T11:24:02.210Z,29.91
2017-07-19T11:25:02.917Z,29.95
2017-07-19T11:26:03.643Z,30.02
2017-07-19T11:27:04.423Z,29.91
2017-07-19T11:28:05.132Z,29.94
2017-07-19T11:29:05.848Z,29.87
2017-07-19T11:30:06.565Z,29.90
2017-07-19T11:31:07.274Z,29.86
2017-07-19T11:32:08.189Z,29.91
2017-07-19T11:33:08.901Z,29.98
2017-07-19T11:34:09.611Z,30.10
2017-07-19T11:35:10.325Z,30.25
2017-07-19T11:36:11.040Z,30.30
2017-07-19T11:37:12.008Z,30.30
2017-07-19T11:38:12.721Z,30.50
2017-07-19T11:39:13.432Z,30.68
2017-07-19T11:40:14.144Z,30.65
2017-07-19T11:41:14.860Z,30.68
2017-07-19T11:42:15.825Z,30.75
2017-07-19T11:43:16.541Z,30.68
2017-07-19T11:44:17.254Z,30.57
2017-07-19T11:45:17.972Z,30.59
2017-07-19T11:46:18.685Z,30.55
2017-07-19T11:47:19.646Z,30.72
2017-07-19T11:48:20.358Z,30.70
2017-07-19T11:49:21.069Z,30.90
2017-07-19T11:50:21.781Z,30.87
2017-07-19T11:51:22.503Z,31.03
2017-07-19T11:52:23.466Z,30.94
2017-07-19T11:53:24.177Z,31.07
2017-07-19T11:54:24.889Z,31.25
2017-07-19T11:55:25.598Z,31.09
2017-07-19T11:56:26.308Z,31.10
2017-07-19T11:57:27.281Z,31.12
2017-07-19T11:58:27.997Z,31.27
2017-07-19T11:59:28.708Z,31.25
2017-07-19T12:00:29.417Z,31.15
2017-07-19T12:01:30.128Z,31.20
2017-07-19T12:02:31.094Z,31.28
2017-07-19T12:03:31.807Z,31.34
2017-07-19T12:04:32.515Z,31.40
2017-07-19T12:05:33.231Z,31.52
2017-07-19T12:06:33.950Z,31.56
2017-07-19T12:07:34.910Z,31.44
2017-07-19T12:08:35.624Z,31.55
2017-07-19T12:09:36.343Z,31.47
2017-07-19T12:10:37.053Z,31.49
2017-07-19T12:11:37.776Z,31.59
2017-07-19T12:12:38.748Z,31.61
2017-07-19T12:13:39.463Z,31.81
2017-07-19T12:14:40.173Z,31.73
2017-07-19T12:15:40.883Z,31.76
2017-07-19T12:16:41.596Z,31.96
2017-07-19T12:17:42.563Z,31.90
2017-07-19T12:18:43.282Z,31.65
2017-07-19T12:19:43.991Z,31.77
2017-07-19T12:20:44.699Z,31.89
2017-07-19T12:21:45.409Z,31.94
2017-07-19T12:22:46.365Z,32.03
2017-07-19T12:23:47.074Z,31.99
2017-07-19T12:24:47.785Z,32.08
2017-07-19T12:25:48.496Z,32.16
2017-07-19T12:26:49.206Z,32.16
2017-07-19T12:27:50.181Z,32.15
2017-07-19T12:28:50.894Z,32.30
2017-07-19T12:29:51.618Z,32.40
2017-07-19T12:30:52.324Z,32.55
2017-07-19T12:31:53.043Z,32.65
2017-07-19T12:32:54.009Z,32.59
2017-07-19T12:33:54.722Z,32.67
2017-07-19T12:34:55.444Z,32.87
2017-07-19T12:35:56.155Z,32.78
2017-07-19T12:36:56.867Z,33.01
2017-07-19T12:37:57.829Z,32.92
2017-07-19T12:38:58.536Z,32.46
2017-07-19T12:39:59.247Z,32.58
2017-07-19T12:40:59.957Z,32.74
2017-07-19T12:42:00.668Z,32.71
2017-07-19T12:43:01.644Z,32.67
2017-07-19T12:44:02.353Z,32.73
2017-07-19T12:45:03.062Z,32.65
2017-07-19T12:46:03.770Z,32.73
2017-07-19T12:47:04.492Z,32.60
2017-07-19T12:48:05.464Z,32.86
2017-07-19T12:49:06.175Z,33.04
2017-07-19T12:50:06.886Z,33.04
2017-07-19T12:51:07.591Z,33.08
2017-07-19T12:52:08.302Z,33.12
2017-07-19T12:53:09.264Z,33.20
2017-07-19T12:54:09.974Z,33.40
2017-07-19T12:55:10.689Z,33.27
2017-07-19T12:56:11.402Z,33.28
2017-07-19T12:57:12.114Z,33.42
2017-07-19T12:58:12.826Z,33.05
2017-07-19T12:59:13.541Z,33.14
2017-07-19T13:00:14.259Z,33.31
2017-07-19T13:01:14.905Z,33.34
2017-07-19T13:02:15.676Z,33.39